createdAt,value
2023-03-15T00:01:17.529Z,13.97
2023-03-15T00:04:20.797Z,13.78
2023-03-15T00:07:24.294Z,13.68
2023-03-15T00:10:27.626Z,13.81
2023-03-15T00:13:31.359Z,13.73
2023-03-15T00:16:37.083Z,13.83
2023-03-15T00:19:40.411Z,13.70
2023-03-15T00:22:43.584Z,13.64
2023-03-15T00:25:48.323Z,13.56
2023-03-15T00:28:54.585Z,13.59
2023-03-15T00:31:57.822Z,13.72
2023-03-15T00:35:01.135Z,14.03
2023-03-15T00:38:04.450Z,13.98
2023-03-15T00:41:15.041Z,14.13
2023-03-15T00:44:18.436Z,13.88
2023-03-15T00:47:21.988Z,13.93
2023-03-15T00:50:26.504Z,13.94
2023-03-15T00:53:29.793Z,13.63
2023-03-15T00:56:33.101Z,13.84
2023-03-15T00:59:36.359Z,13.51
2023-03-15T01:02:39.624Z,13.25
2023-03-15T01:05:42.824Z,13.30
2023-03-15T01:08:46.566Z,13.48
2023-03-15T01:11:52.016Z,13.05
2023-03-15T01:14:55.493Z,12.84
2023-03-15T01:17:58.724Z,13.13
2023-03-15T01:21:02.274Z,13.37
2023-03-15T01:24:05.855Z,13.02
2023-03-15T01:27:09.290Z,13.02
2023-03-15T01:30:13.660Z,12.95
2023-03-15T01:33:17.242Z,12.73
2023-03-15T01:36:20.849Z,12.58
2023-03-15T01:39:24.161Z,12.49
2023-03-15T01:42:29.916Z,12.65
2023-03-15T01:45:58.401Z,12.57
2023-03-15T01:49:19.351Z,12.52
2023-03-15T01:52:26.217Z,12.37
2023-03-15T01:55:30.114Z,12.44
2023-03-15T01:58:36.794Z,12.50
2023-03-15T02:01:41.710Z,12.32
2023-03-15T02:04:55.186Z,12.60
2023-03-15T02:07:58.467Z,12.49
2023-03-15T02:11:04.176Z,12.11
2023-03-15T02:14:07.803Z,12.10
2023-03-15T02:17:11.288Z,11.89
2023-03-15T02:20:44.113Z,12.12
2023-03-15T02:23:54.406Z,12.18
2023-03-15T02:26:58.863Z,11.92
2023-03-15T02:30:03.499Z,11.70
2023-03-15T02:33:09.933Z,11.96
2023-03-15T02:36:21.359Z,11.81
2023-03-15T02:39:24.716Z,12.09
2023-03-15T02:42:28.088Z,12.00
2023-03-15T02:45:31.967Z,11.87
2023-03-15T02:48:36.787Z,11.82
2023-03-15T02:51:40.020Z,11.92
2023-03-15T02:54:43.382Z,11.85
2023-03-15T02:57:46.917Z,11.42
2023-03-15T03:00:50.249Z,11.51
2023-03-15T03:03:53.494Z,11.27
2023-03-15T03:06:56.838Z,11.51
2023-03-15T03:10:00.019Z,11.41
2023-03-15T03:13:03.311Z,11.21
2023-03-15T03:16:06.826Z,11.32
2023-03-15T03:19:11.333Z,11.17
2023-03-15T03:22:14.506Z,11.16
2023-03-15T03:25:20.584Z,10.97
2023-03-15T03:28:25.532Z,10.89
2023-03-15T03:31:29.192Z,10.78
2023-03-15T03:34:33.697Z,10.61
2023-03-15T03:37:37.539Z,10.68
2023-03-15T03:40:41.531Z,10.63
2023-03-15T03:43:44.843Z,10.85
2023-03-15T03:46:48.193Z,10.78
2023-03-15T03:49:51.605Z,11.04
2023-03-15T03:52:55.126Z,11.28
2023-03-15T03:55:58.378Z,10.87
2023-03-15T03:59:01.650Z,10.81
2023-03-15T04:02:05.004Z,11.13
2023-03-15T04:05:08.601Z,11.43
2023-03-15T04:08:11.967Z,11.44
2023-03-15T04:11:15.222Z,10.76
2023-03-15T04:14:18.547Z,10.83
2023-03-15T04:17:21.829Z,10.88
2023-03-15T04:20:28.221Z,10.77
2023-03-15T04:23:31.893Z,10.83
2023-03-15T04:26:35.154Z,10.96
2023-03-15T04:29:38.392Z,10.87
2023-03-15T04:32:41.624Z,10.67
2023-03-15T04:35:45.052Z,10.78
2023-03-15T04:38:49.206Z,10.69
2023-03-15T04:41:52.587Z,10.59
2023-03-15T04:44:56.068Z,10.51
2023-03-15T04:47:59.837Z,10.22
2023-03-15T04:51:03.250Z,10.41
2023-03-15T04:54:06.821Z,10.24
2023-03-15T04:57:10.167Z,10.07
2023-03-15T05:00:14.255Z,10.15
2023-03-15T05:03:17.616Z,10.16
2023-03-15T05:06:21.973Z,9.86
2023-03-15T05:09:25.200Z,9.98
2023-03-15T05:12:29.186Z,9.93
2023-03-15T05:15:32.625Z,10.02
2023-03-15T05:18:35.949Z,9.90
2023-03-15T05:21:39.298Z,9.80
2023-03-15T05:24:42.730Z,9.80
2023-03-15T05:27:46.054Z,9.74
2023-03-15T05:30:49.441Z,9.55
2023-03-15T05:33:52.772Z,9.83
2023-03-15T05:36:55.936Z,9.56
2023-03-15T05:40:00.043Z,9.35
2023-03-15T05:43:03.184Z,9.37
2023-03-15T05:46:06.445Z,9.48
2023-03-15T05:49:09.803Z,9.58
2023-03-15T05:52:13.132Z,9.52
2023-03-15T05:55:16.338Z,9.30
2023-03-15T05:58:19.609Z,9.28
2023-03-15T06:01:22.791Z,9.21
2023-03-15T06:04:26.060Z,9.44
2023-03-15T06:07:29.388Z,9.43
2023-03-15T06:10:32.623Z,9.30
2023-03-15T06:13:35.764Z,9.19
2023-03-15T06:16:39.436Z,9.17
2023-03-15T06:19:42.738Z,8.97
2023-03-15T06:22:46.396Z,9.30
2023-03-15T06:25:49.771Z,9.29
2023-03-15T06:28:52.959Z,9.15
2023-03-15T06:31:56.206Z,9.15
2023-03-15T06:34:59.484Z,8.96
2023-03-15T06:38:02.922Z,8.95
2023-03-15T06:41:06.379Z,9.02
2023-03-15T06:44:09.992Z,8.90
2023-03-15T06:47:14.420Z,8.83
2023-03-15T06:50:17.943Z,8.88
2023-03-15T06:53:22.338Z,8.84
2023-03-15T06:56:25.648Z,8.71
2023-03-15T06:59:31.148Z,8.95
2023-03-15T07:02:34.348Z,8.89
2023-03-15T07:05:38.035Z,9.06
2023-03-15T07:08:41.267Z,8.86
2023-03-15T07:11:44.637Z,8.86
2023-03-15T07:14:47.914Z,8.69
2023-03-15T07:17:51.118Z,8.64
2023-03-15T07:21:01.951Z,8.43
2023-03-15T07:24:05.448Z,8.41
2023-03-15T07:27:08.758Z,8.47
2023-03-15T07:30:12.710Z,8.35
2023-03-15T07:33:15.957Z,8.44
2023-03-15T07:36:19.250Z,8.41
2023-03-15T07:39:22.617Z,8.14
2023-03-15T07:42:25.939Z,8.22
2023-03-15T07:45:29.160Z,7.99
2023-03-15T07:48:32.490Z,8.15
2023-03-15T07:51:35.753Z,8.21
2023-03-15T07:54:38.920Z,8.35
2023-03-15T07:57:42.193Z,8.08
2023-03-15T08:00:45.592Z,7.86
2023-03-15T08:03:48.757Z,7.95
2023-03-15T08:06:52.048Z,8.04
2023-03-15T08:09:57.881Z,8.05
2023-03-15T08:13:01.062Z,8.03
2023-03-15T08:16:04.336Z,7.99
2023-03-15T08:19:07.755Z,7.78
2023-03-15T08:22:11.472Z,7.81
2023-03-15T08:25:16.466Z,7.84
2023-03-15T08:28:19.653Z,7.74
2023-03-15T08:31:23.088Z,7.69
2023-03-15T08:34:26.579Z,7.73
2023-03-15T08:37:29.837Z,7.59
2023-03-15T08:40:35.304Z,7.61
2023-03-15T08:43:38.523Z,7.72
2023-03-15T08:46:41.779Z,7.62
2023-03-15T08:49:45.098Z,7.65
2023-03-15T08:52:49.428Z,7.46
2023-03-15T08:55:52.771Z,7.40
2023-03-15T08:58:56.076Z,7.53
2023-03-15T09:02:01.328Z,7.72
2023-03-15T09:05:05.608Z,7.54
2023-03-15T09:08:08.860Z,7.64
2023-03-15T09:11:12.109Z,7.62
2023-03-15T09:14:15.316Z,7.52
2023-03-15T09:17:18.543Z,7.51
2023-03-15T09:20:22.357Z,7.62
2023-03-15T09:23:25.609Z,7.62
2023-03-15T09:26:31.899Z,7.39
2023-03-15T09:29:35.129Z,7.48
2023-03-15T09:32:38.659Z,7.29
2023-03-15T09:35:42.240Z,6.89
2023-03-15T09:38:46.684Z,6.94
2023-03-15T09:41:59.586Z,7.18
2023-03-15T09:45:25.776Z,6.87
2023-03-15T09:48:43.838Z,7.01
2023-03-15T09:51:57.773Z,7.09
2023-03-15T09:55:04.184Z,7.05
2023-03-15T09:58:23.967Z,6.86
2023-03-15T10:01:41.513Z,6.74
2023-03-15T10:04:46.774Z,6.64
2023-03-15T10:07:50.037Z,6.67
2023-03-15T10:10:59.403Z,6.64
2023-03-15T10:14:23.550Z,6.60
2023-03-15T10:17:41.385Z,6.62
2023-03-15T10:20:52.833Z,6.77
2023-03-15T10:23:56.208Z,6.86
2023-03-15T10:27:00.878Z,6.89
2023-03-15T10:30:16.559Z,7.00
2023-03-15T10:33:38.270Z,6.73
2023-03-15T10:36:50.454Z,6.77
2023-03-15T10:39:59.421Z,6.89
2023-03-15T10:43:05.041Z,6.81
2023-03-15T10:46:23.208Z,6.67
2023-03-15T10:49:34.387Z,6.48
2023-03-15T10:52:45.626Z,6.37
2023-03-15T10:55:50.015Z,6.45
2023-03-15T10:59:11.487Z,6.31
2023-03-15T11:02:17.307Z,6.10
2023-03-15T11:05:21.247Z,6.17
2023-03-15T11:08:39.973Z,6.19
2023-03-15T11:11:53.614Z,6.20
2023-03-15T11:15:15.632Z,6.28
2023-03-15T11:18:21.609Z,5.98
2023-03-15T11:21:30.409Z,6.23
2023-03-15T11:24:36.030Z,6.32
2023-03-15T11:27:39.370Z,6.47
2023-03-15T11:30:42.775Z,6.47
2023-03-15T11:34:00.933Z,6.38
2023-03-15T11:37:13.235Z,6.35
2023-03-15T11:40:18.162Z,6.00
2023-03-15T11:43:34.861Z,5.49
2023-03-15T11:46:53.854Z,5.25
2023-03-15T11:49:58.445Z,5.38
2023-03-15T11:53:03.036Z,6.18
2023-03-15T11:56:27.374Z,5.93
2023-03-15T11:59:34.702Z,5.52
2023-03-15T12:02:50.086Z,5.22
2023-03-15T12:06:00.336Z,5.21
2023-03-15T12:09:04.534Z,5.20
2023-03-15T12:12:27.879Z,5.34
2023-03-15T12:15:41.958Z,5.24
2023-03-15T12:18:45.891Z,5.81
2023-03-15T12:21:54.608Z,5.97
2023-03-15T12:25:01.800Z,6.00
2023-03-15T12:28:10.905Z,5.95
2023-03-15T12:31:14.933Z,5.95
2023-03-15T12:34:40.429Z,5.94
2023-03-15T12:37:48.408Z,5.10
2023-03-15T12:40:55.932Z,5.27
2023-03-15T12:44:33.047Z,5.58
2023-03-15T12:47:51.551Z,5.68
2023-03-15T12:50:57.795Z,5.98
2023-03-15T12:54:01.273Z,6.07
2023-03-15T12:57:05.708Z,6.27
2023-03-15T13:00:15.426Z,6.23
2023-03-15T13:03:27.354Z,6.30
2023-03-15T13:06:39.283Z,6.35
2023-03-15T13:09:45.326Z,6.42
2023-03-15T13:13:20.876Z,6.31
2023-03-15T13:16:45.401Z,6.53
2023-03-15T13:19:55.804Z,6.90
2023-03-15T13:23:05.312Z,6.60
2023-03-15T13:26:29.834Z,6.80
2023-03-15T13:29:34.023Z,6.90
2023-03-15T13:32:44.466Z,6.80
2023-03-15T13:36:00.725Z,6.79
2023-03-15T13:39:23.451Z,7.56
2023-03-15T13:42:26.927Z,7.40
2023-03-15T13:45:30.166Z,7.50
2023-03-15T13:48:38.104Z,7.86
2023-03-15T13:51:44.153Z,8.05
2023-03-15T13:54:47.680Z,8.52
2023-03-15T13:57:56.181Z,8.45
2023-03-15T14:01:05.856Z,8.83
2023-03-15T14:04:18.127Z,9.18
2023-03-15T14:07:28.960Z,8.83
2023-03-15T14:10:36.561Z,8.71
2023-03-15T14:14:01.207Z,8.84
2023-03-15T14:17:17.469Z,8.99
2023-03-15T14:20:24.908Z,9.02
2023-03-15T14:23:31.320Z,8.89
2023-03-15T14:26:41.658Z,9.34
2023-03-15T14:29:53.505Z,9.74
2023-03-15T14:33:00.216Z,9.91
2023-03-15T14:36:08.171Z,10.25
2023-03-15T14:39:40.825Z,10.43
2023-03-15T14:42:44.997Z,10.83
2023-03-15T14:45:49.356Z,10.89
2023-03-15T14:48:53.017Z,10.66
2023-03-15T14:52:07.308Z,11.06
2023-03-15T14:55:20.166Z,10.81
2023-03-15T14:58:27.825Z,10.90
2023-03-15T15:01:31.235Z,11.06
2023-03-15T15:04:35.391Z,11.28
2023-03-15T15:07:38.684Z,11.11
2023-03-15T15:10:43.266Z,11.27
2023-03-15T15:13:46.705Z,11.41
2023-03-15T15:16:50.474Z,11.83
2023-03-15T15:19:55.957Z,11.47
2023-03-15T15:22:59.160Z,11.93
2023-03-15T15:26:07.001Z,12.06
2023-03-15T15:29:17.096Z,12.24
2023-03-15T15:32:20.236Z,12.48
2023-03-15T15:35:23.668Z,12.92
2023-03-15T15:38:34.608Z,13.16
2023-03-15T15:41:37.870Z,13.03
2023-03-15T15:44:41.259Z,13.23
2023-03-15T15:47:47.040Z,12.68
2023-03-15T15:50:50.356Z,13.44
2023-03-15T15:53:54.850Z,13.58
2023-03-15T15:56:59.692Z,13.55
2023-03-15T16:00:02.922Z,14.07
2023-03-15T16:03:14.730Z,14.45
2023-03-15T16:06:20.239Z,14.43
2023-03-15T16:09:24.242Z,14.58
2023-03-15T16:12:27.534Z,14.77
2023-03-15T16:15:30.876Z,14.26
2023-03-15T16:18:34.139Z,14.95
2023-03-15T16:21:45.816Z,14.04
2023-03-15T16:24:57.631Z,14.01
2023-03-15T16:28:02.005Z,14.87
2023-03-15T16:31:05.340Z,14.89
2023-03-15T16:34:19.901Z,15.61
2023-03-15T16:37:26.280Z,15.31
2023-03-15T16:40:33.079Z,14.29
2023-03-15T16:43:36.337Z,15.02
2023-03-15T16:46:39.660Z,16.18
2023-03-15T16:49:43.015Z,15.53
2023-03-15T16:52:48.097Z,15.00
2023-03-15T16:55:51.444Z,15.78
2023-03-15T16:58:54.747Z,16.27
2023-03-15T17:01:58.175Z,16.08
2023-03-15T17:05:01.503Z,16.43
2023-03-15T17:08:04.789Z,15.93
2023-03-15T17:11:09.924Z,17.37
2023-03-15T17:14:19.561Z,16.24
2023-03-15T17:17:22.815Z,16.69
2023-03-15T17:20:27.355Z,16.93
2023-03-15T17:23:33.027Z,15.91
2023-03-15T17:26:36.734Z,17.02
2023-03-15T17:29:42.197Z,17.09
2023-03-15T17:32:45.889Z,16.53
2023-03-15T17:35:51.855Z,16.70
2023-03-15T17:38:55.804Z,17.02
2023-03-15T17:42:00.297Z,17.72
2023-03-15T17:45:20.505Z,16.81
2023-03-15T17:48:23.780Z,17.09
2023-03-15T17:51:30.043Z,16.21
2023-03-15T17:54:33.661Z,16.99
2023-03-15T17:57:40.440Z,16.92
2023-03-15T18:00:46.453Z,17.34
2023-03-15T18:03:50.481Z,18.41
2023-03-15T18:06:53.814Z,18.33
2023-03-15T18:09:57.239Z,17.88
2023-03-15T18:13:00.526Z,16.53
2023-03-15T18:16:03.870Z,16.68
2023-03-15T18:19:07.110Z,16.78
2023-03-15T18:22:15.613Z,17.58
2023-03-15T18:25:23.226Z,17.85
2023-03-15T18:28:26.506Z,18.06
2023-03-15T18:31:29.821Z,18.43
2023-03-15T18:34:33.087Z,17.75
2023-03-15T18:37:36.388Z,17.39
2023-03-15T18:40:39.672Z,17.14
2023-03-15T18:43:42.981Z,17.45
2023-03-15T18:46:46.285Z,17.45
2023-03-15T18:49:51.193Z,17.51
2023-03-15T18:52:58.785Z,18.58
2023-03-15T18:56:02.156Z,18.06
2023-03-15T18:59:05.624Z,18.41
2023-03-15T19:02:10.153Z,18.40
2023-03-15T19:05:15.009Z,18.14
2023-03-15T19:08:20.522Z,18.20
2023-03-15T19:11:26.215Z,18.48
2023-03-15T19:14:29.710Z,17.67
2023-03-15T19:17:33.140Z,17.39
2023-03-15T19:20:36.386Z,18.23
2023-03-15T19:23:41.920Z,18.97
2023-03-15T19:26:45.233Z,18.71
2023-03-15T19:29:48.585Z,18.60
2023-03-15T19:32:52.246Z,18.95
2023-03-15T19:35:55.841Z,19.48
2023-03-15T19:38:59.108Z,19.05
2023-03-15T19:42:02.333Z,18.36
2023-03-15T19:45:06.015Z,18.81
2023-03-15T19:48:09.328Z,18.85
2023-03-15T19:51:12.579Z,19.20
2023-03-15T19:54:18.746Z,19.07
2023-03-15T19:57:22.618Z,19.22
2023-03-15T20:00:25.945Z,19.32
2023-03-15T20:03:29.260Z,19.37
2023-03-15T20:06:35.034Z,18.78
2023-03-15T20:09:41.412Z,18.87
2023-03-15T20:12:44.894Z,18.64
2023-03-15T20:15:48.116Z,18.88
2023-03-15T20:18:51.742Z,19.41
2023-03-15T20:21:55.224Z,18.97
2023-03-15T20:24:58.547Z,19.47
2023-03-15T20:28:01.877Z,18.83
2023-03-15T20:31:09.869Z,18.40
2023-03-15T20:34:13.164Z,18.62
2023-03-15T20:37:21.464Z,18.22
2023-03-15T20:40:25.155Z,18.82
2023-03-15T20:43:28.763Z,18.46
2023-03-15T20:46:31.993Z,18.54
2023-03-15T20:49:37.324Z,18.90
2023-03-15T20:52:40.836Z,19.26
2023-03-15T20:55:44.679Z,18.65
2023-03-15T20:58:47.994Z,18.58
2023-03-15T21:01:51.306Z,19.17
2023-03-15T21:04:54.878Z,19.12
2023-03-15T21:07:58.315Z,18.83
2023-03-15T21:11:02.569Z,18.81
2023-03-15T21:14:05.924Z,18.28
2023-03-15T21:17:09.197Z,18.62
2023-03-15T21:20:21.247Z,18.59
2023-03-15T21:23:25.279Z,18.19
2023-03-15T21:26:31.025Z,18.91
2023-03-15T21:29:34.731Z,18.84
2023-03-15T21:32:41.419Z,18.41
2023-03-15T21:35:45.239Z,18.64
2023-03-15T21:38:48.512Z,18.43
2023-03-15T21:41:51.804Z,18.49
2023-03-15T21:44:55.057Z,18.46
2023-03-15T21:47:58.350Z,17.94
2023-03-15T21:51:05.686Z,18.60
2023-03-15T21:54:09.155Z,18.86
2023-03-15T21:57:13.064Z,19.09
2023-03-15T22:00:17.085Z,19.14
2023-03-15T22:03:20.325Z,18.77
2023-03-15T22:06:24.021Z,18.97
2023-03-15T22:09:27.623Z,18.98
2023-03-15T22:12:30.874Z,18.94
2023-03-15T22:15:34.200Z,18.70
2023-03-15T22:18:37.760Z,19.13
2023-03-15T22:21:41.241Z,19.27
2023-03-15T22:24:44.441Z,19.14
2023-03-15T22:27:47.889Z,18.96
2023-03-15T22:30:51.968Z,19.03
2023-03-15T22:33:56.097Z,19.05
2023-03-15T22:36:59.366Z,18.97
2023-03-15T22:40:02.705Z,19.17
2023-03-15T22:43:07.150Z,18.93
2023-03-15T22:46:10.774Z,18.87
2023-03-15T22:49:14.111Z,18.75
2023-03-15T22:52:17.390Z,18.52
2023-03-15T22:55:20.734Z,18.52
2023-03-15T22:58:24.347Z,18.57
2023-03-15T23:01:27.845Z,18.56
2023-03-15T23:04:31.318Z,19.00
2023-03-15T23:07:34.672Z,18.69
2023-03-15T23:10:38.008Z,18.42
2023-03-15T23:13:41.214Z,18.31
2023-03-15T23:16:44.510Z,18.26
2023-03-15T23:19:48.719Z,17.88
2023-03-15T23:22:54.926Z,17.97
2023-03-15T23:25:58.253Z,18.11
2023-03-15T23:29:01.496Z,18.06
2023-03-15T23:32:05.146Z,17.99
2023-03-15T23:35:11.105Z,18.04
2023-03-15T23:38:14.469Z,17.94
2023-03-15T23:41:17.650Z,17.95
2023-03-15T23:44:20.808Z,17.82
2023-03-15T23:47:25.411Z,17.44
2023-03-15T23:50:30.701Z,17.58
2023-03-15T23:53:39.207Z,17.56
2023-03-15T23:56:42.530Z,17.34
2023-03-15T23:59:45.897Z,17.47
